createdAt,value
2019-02-19T00:01:08.020Z,95681.80
2019-02-19T00:03:36.806Z,95680.35
2019-02-19T00:06:05.454Z,95682.53
2019-02-19T00:08:34.282Z,95678.84
2019-02-19T00:11:03.441Z,95683.03
2019-02-19T00:13:32.581Z,95688.63
2019-02-19T00:16:00.863Z,95677.66
2019-02-19T00:18:29.640Z,95674.77
2019-02-19T00:21:00.323Z,95676.77
2019-02-19T00:23:29.161Z,95677.27
2019-02-19T00:25:59.177Z,95685.66
2019-02-19T00:28:28.107Z,95682.14
2019-02-19T00:30:57.075Z,95683.70
2019-02-19T00:33:26.713Z,95687.07
2019-02-19T00:35:56.180Z,95690.61
2019-02-19T00:38:25.982Z,95690.61
2019-02-19T00:40:54.580Z,95691.22
2019-02-19T00:43:30.641Z,95692.09
2019-02-19T00:45:59.928Z,95693.28
2019-02-19T00:48:29.020Z,95694.63
2019-02-19T00:50:57.700Z,95703.20
2019-02-19T00:53:26.491Z,95711.36
2019-02-19T00:55:55.403Z,95707.45
2019-02-19T00:58:24.562Z,95709.95
2019-02-19T01:00:53.587Z,95711.70
2019-02-19T01:03:23.468Z,95721.71
2019-02-19T01:05:52.471Z,95721.71
2019-02-19T01:08:20.860Z,95722.44
2019-02-19T01:10:49.943Z,95715.23
2019-02-19T01:13:19.414Z,95715.80
2019-02-19T01:15:48.860Z,95711.14
2019-02-19T01:18:17.394Z,95711.74
2019-02-19T01:20:46.540Z,95713.64
2019-02-19T01:23:15.843Z,95715.16
2019-02-19T01:25:44.981Z,95707.91
2019-02-19T01:28:14.660Z,95709.97
2019-02-19T01:30:43.740Z,95711.84
2019-02-19T01:33:12.839Z,95704.47
2019-02-19T01:35:41.940Z,95711.09
2019-02-19T01:38:10.728Z,95709.22
2019-02-19T01:40:39.630Z,95708.73
2019-02-19T01:43:08.920Z,95708.34
2019-02-19T01:45:37.630Z,95709.76
2019-02-19T01:48:06.133Z,95715.30
2019-02-19T01:50:34.988Z,95711.00
2019-02-19T01:53:03.462Z,95713.52
2019-02-19T01:55:32.040Z,95713.23
2019-02-19T01:58:01.120Z,95717.78
2019-02-19T02:00:31.140Z,95717.83
2019-02-19T02:03:03.228Z,95720.56
2019-02-19T02:05:32.193Z,95718.04
2019-02-19T02:08:00.880Z,95718.01
2019-02-19T02:10:29.583Z,95721.85
2019-02-19T02:12:58.916Z,95722.09
2019-02-19T02:15:27.768Z,95721.71
2019-02-19T02:17:56.645Z,95722.36
2019-02-19T02:20:25.439Z,95721.59
2019-02-19T02:22:55.268Z,95722.14
2019-02-19T02:25:23.739Z,95723.33
2019-02-19T02:27:52.802Z,95729.11
2019-02-19T02:30:21.420Z,95719.30
2019-02-19T02:32:50.011Z,95736.01
2019-02-19T02:35:18.368Z,95734.08
2019-02-19T02:37:49.008Z,95737.89
2019-02-19T02:40:18.621Z,95736.89
2019-02-19T02:42:47.805Z,95738.98
2019-02-19T02:45:16.501Z,95744.97
2019-02-19T02:47:46.000Z,95754.52
2019-02-19T02:50:15.508Z,95741.02
2019-02-19T02:52:44.303Z,95750.75
2019-02-19T02:55:13.382Z,95754.41
2019-02-19T02:57:42.580Z,95754.31
2019-02-19T03:00:12.800Z,95755.46
2019-02-19T03:02:41.801Z,95762.17
2019-02-19T03:05:10.580Z,95762.17
2019-02-19T03:07:43.060Z,95758.12
2019-02-19T03:10:11.895Z,95761.55
2019-02-19T03:12:41.042Z,95761.00
2019-02-19T03:15:10.567Z,95768.20
2019-02-19T03:17:39.552Z,95768.48
2019-02-19T03:20:08.015Z,95772.78
2019-02-19T03:22:36.916Z,95784.09
2019-02-19T03:25:06.128Z,95776.33
2019-02-19T03:27:35.413Z,95782.31
2019-02-19T03:30:04.704Z,95789.86
2019-02-19T03:32:33.085Z,95791.63
2019-02-19T03:35:01.366Z,95788.93
2019-02-19T03:37:30.250Z,95793.14
2019-02-19T03:39:59.345Z,95794.38
2019-02-19T03:42:28.440Z,95797.08
2019-02-19T03:44:56.918Z,95800.10
2019-02-19T03:47:25.507Z,95788.89
2019-02-19T03:49:54.187Z,95804.34
2019-02-19T03:52:22.563Z,95802.03
2019-02-19T03:54:51.662Z,95806.21
2019-02-19T03:57:20.042Z,95807.59
2019-02-19T03:59:48.733Z,95817.08
2019-02-19T04:02:17.829Z,95817.08
2019-02-19T04:04:46.816Z,95810.63
2019-02-19T04:07:15.190Z,95817.69
2019-02-19T04:09:44.081Z,95821.06
2019-02-19T04:12:12.767Z,95817.41
2019-02-19T04:14:41.646Z,95820.91
2019-02-19T04:17:10.346Z,95828.92
2019-02-19T04:19:39.030Z,95818.54
2019-02-19T04:22:07.306Z,95825.05
2019-02-19T04:24:36.408Z,95825.05
2019-02-19T04:27:04.784Z,95824.84
2019-02-19T04:29:33.362Z,95821.63
2019-02-19T04:32:01.947Z,95823.67
2019-02-19T04:34:31.353Z,95828.94
2019-02-19T04:37:00.531Z,95826.02
2019-02-19T04:39:29.853Z,95827.05
2019-02-19T04:41:58.932Z,95828.05
2019-02-19T04:44:27.518Z,95828.05
2019-02-19T04:46:56.104Z,95837.48
2019-02-19T04:49:24.865Z,95839.89
2019-02-19T04:51:54.397Z,95843.22
2019-02-19T04:54:22.991Z,95841.34
2019-02-19T04:56:51.459Z,95840.77
2019-02-19T04:59:19.802Z,95837.48
2019-02-19T05:01:48.435Z,95842.87
2019-02-19T05:04:16.708Z,95844.75
2019-02-19T05:06:46.009Z,95844.39
2019-02-19T05:09:17.038Z,95845.52
2019-02-19T05:11:46.551Z,95847.88
2019-02-19T05:14:15.035Z,95847.88
2019-02-19T05:16:43.922Z,95844.34
2019-02-19T05:19:12.698Z,95844.34
2019-02-19T05:21:41.598Z,95860.03
2019-02-19T05:24:11.048Z,95863.89
2019-02-19T05:26:39.385Z,95860.57
2019-02-19T05:29:08.272Z,95860.08
2019-02-19T05:31:36.542Z,95860.08
2019-02-19T05:34:04.824Z,95857.42
2019-02-19T05:36:33.295Z,95864.59
2019-02-19T05:39:02.493Z,95864.59
2019-02-19T05:41:31.392Z,95858.76
2019-02-19T05:44:00.800Z,95858.72
2019-02-19T05:46:31.008Z,95865.51
2019-02-19T05:48:59.189Z,95865.51
2019-02-19T05:51:28.997Z,95862.24
2019-02-19T05:53:57.882Z,95878.49
2019-02-19T05:56:26.403Z,95878.49
2019-02-19T05:58:55.361Z,95866.02
2019-02-19T06:01:23.940Z,95879.27
2019-02-19T06:03:52.528Z,95875.23
2019-02-19T06:06:21.008Z,95875.23
2019-02-19T06:08:50.083Z,95875.59
2019-02-19T06:11:19.713Z,95882.20
2019-02-19T06:13:47.882Z,95880.36
2019-02-19T06:16:16.878Z,95888.57
2019-02-19T06:18:45.966Z,95891.27
2019-02-19T06:21:14.138Z,95891.27
2019-02-19T06:23:43.039Z,95899.11
2019-02-19T06:26:11.928Z,95902.82
2019-02-19T06:28:40.874Z,95902.82
2019-02-19T06:31:09.699Z,95913.64
2019-02-19T06:33:38.089Z,95912.36
2019-02-19T06:36:06.652Z,95906.82
2019-02-19T06:38:35.061Z,95927.45
2019-02-19T06:41:03.825Z,95927.45
2019-02-19T06:43:33.443Z,95937.21
2019-02-19T06:46:02.325Z,95934.97
2019-02-19T06:48:31.111Z,95943.23
2019-02-19T06:51:00.006Z,95943.23
2019-02-19T06:53:29.107Z,95948.95
2019-02-19T06:55:57.483Z,95948.95
2019-02-19T06:58:26.565Z,95968.94
2019-02-19T07:00:55.038Z,95968.94
2019-02-19T07:03:27.940Z,95977.21
2019-02-19T07:05:56.051Z,95977.21
2019-02-19T07:08:24.999Z,95974.17
2019-02-19T07:10:54.400Z,95979.60
2019-02-19T07:13:23.448Z,95974.66
2019-02-19T07:15:54.328Z,95975.03
2019-02-19T07:18:22.710Z,95968.83
2019-02-19T07:20:51.508Z,95968.83
2019-02-19T07:23:20.808Z,95974.54
2019-02-19T07:25:49.993Z,95977.52
2019-02-19T07:28:18.688Z,95970.81
2019-02-19T07:30:46.653Z,95970.81
2019-02-19T07:33:15.653Z,95965.27
2019-02-19T07:35:44.840Z,95965.27
2019-02-19T07:38:13.935Z,95967.91
2019-02-19T07:40:42.826Z,95976.66
2019-02-19T07:43:11.204Z,95976.66
2019-02-19T07:45:40.655Z,95975.48
2019-02-19T07:48:10.527Z,95968.34
2019-02-19T07:50:39.939Z,95973.06
2019-02-19T07:53:08.513Z,95973.06
2019-02-19T07:55:37.387Z,95971.03
2019-02-19T07:58:07.085Z,95966.00
2019-02-19T08:00:35.528Z,95965.79
2019-02-19T08:03:05.041Z,95961.56
2019-02-19T08:05:33.979Z,95967.82
2019-02-19T08:08:02.941Z,95967.82
2019-02-19T08:10:31.965Z,95968.34
2019-02-19T08:13:00.253Z,95970.28
2019-02-19T08:15:28.825Z,95967.55
2019-02-19T08:17:57.408Z,95962.47
2019-02-19T08:20:25.783Z,95960.63
2019-02-19T08:22:54.678Z,95962.88
2019-02-19T08:25:23.883Z,95962.88
2019-02-19T08:27:52.721Z,95968.30
2019-02-19T08:30:21.357Z,95968.30
2019-02-19T08:32:50.652Z,95965.97
2019-02-19T08:35:19.177Z,95973.37
2019-02-19T08:37:48.318Z,95973.45
2019-02-19T08:40:17.116Z,95984.69
2019-02-19T08:42:46.105Z,95989.11
2019-02-19T08:45:15.416Z,95983.84
2019-02-19T08:47:44.410Z,95976.89
2019-02-19T08:50:13.808Z,95973.55
2019-02-19T08:52:42.288Z,95957.45
2019-02-19T08:55:10.885Z,95957.17
2019-02-19T08:57:39.754Z,95957.17
2019-02-19T09:00:09.270Z,95957.84
2019-02-19T09:02:38.395Z,95948.50
2019-02-19T09:05:07.661Z,95950.40
2019-02-19T09:07:36.445Z,95961.52
2019-02-19T09:10:06.839Z,95952.95
2019-02-19T09:12:35.250Z,95952.95
2019-02-19T09:15:03.633Z,95951.96
2019-02-19T09:17:31.619Z,95951.96
2019-02-19T09:20:00.239Z,95951.52
2019-02-19T09:22:29.604Z,95954.98
2019-02-19T09:24:59.190Z,95944.69
2019-02-19T09:27:28.074Z,95945.10
2019-02-19T09:29:56.998Z,95938.14
2019-02-19T09:32:25.854Z,95941.50
2019-02-19T09:34:54.982Z,95942.14
2019-02-19T09:37:23.640Z,95943.19
2019-02-19T09:39:52.543Z,95935.49
2019-02-19T09:42:21.513Z,95937.77
2019-02-19T09:44:49.896Z,95928.39
2019-02-19T09:47:18.889Z,95919.86
2019-02-19T09:49:48.009Z,95920.96
2019-02-19T09:52:17.037Z,95923.39
2019-02-19T09:54:46.075Z,95920.66
2019-02-19T09:57:15.083Z,95920.83
2019-02-19T09:59:43.445Z,95920.78
2019-02-19T10:02:12.345Z,96014.95
2019-02-19T10:04:40.612Z,95907.65
2019-02-19T10:07:09.191Z,95909.14
2019-02-19T10:09:38.186Z,95912.00
2019-02-19T10:12:07.795Z,95907.03
2019-02-19T10:14:36.160Z,95900.01
2019-02-19T10:17:04.959Z,95900.39
2019-02-19T10:19:33.643Z,95891.61
2019-02-19T10:22:02.538Z,95886.09
2019-02-19T10:24:30.920Z,95890.35
2019-02-19T10:27:00.002Z,95894.09
2019-02-19T10:29:28.908Z,95886.00
2019-02-19T10:31:59.635Z,95883.20
2019-02-19T10:34:28.533Z,95880.68
2019-02-19T10:36:57.457Z,95873.20
2019-02-19T10:39:26.103Z,95861.70
2019-02-19T10:41:55.195Z,95865.23
2019-02-19T10:44:24.309Z,95860.47
2019-02-19T10:46:53.082Z,95859.91
2019-02-19T10:49:21.761Z,95864.31
2019-02-19T10:51:50.666Z,95855.06
2019-02-19T10:54:19.750Z,95850.11
2019-02-19T10:56:48.640Z,95843.50
2019-02-19T10:59:17.128Z,95841.66
2019-02-19T11:01:46.219Z,95836.87
2019-02-19T11:04:14.283Z,95833.27
2019-02-19T11:06:42.764Z,95823.44
2019-02-19T11:09:12.077Z,95819.76
2019-02-19T11:11:40.445Z,95815.61
2019-02-19T11:14:08.916Z,95814.03
2019-02-19T11:16:38.029Z,95797.45
2019-02-19T11:19:06.814Z,95800.55
2019-02-19T11:21:35.985Z,95795.06
2019-02-19T11:24:05.409Z,95803.48
2019-02-19T11:26:33.939Z,95798.45
2019-02-19T11:29:02.889Z,95797.44
2019-02-19T11:31:32.283Z,95782.84
2019-02-19T11:34:01.480Z,95781.92
2019-02-19T11:36:30.482Z,95774.78
2019-02-19T11:38:59.377Z,95762.91
2019-02-19T11:41:28.358Z,95764.30
2019-02-19T11:43:57.672Z,95763.36
2019-02-19T11:46:26.143Z,95759.47
2019-02-19T11:48:56.221Z,95758.16
2019-02-19T11:51:25.258Z,95756.66
2019-02-19T11:53:54.045Z,95752.53
2019-02-19T11:56:22.664Z,95750.64
2019-02-19T11:58:51.160Z,95741.14
2019-02-19T12:01:19.989Z,95740.84
2019-02-19T12:03:48.986Z,95741.19
2019-02-19T12:06:17.874Z,95733.98
2019-02-19T12:08:46.363Z,95726.26
2019-02-19T12:11:15.244Z,95721.05
2019-02-19T12:13:44.340Z,95718.66
2019-02-19T12:16:13.475Z,95713.27
2019-02-19T12:18:46.201Z,95712.63
2019-02-19T12:21:13.577Z,95710.97
2019-02-19T12:23:42.263Z,95704.45
2019-02-19T12:26:10.947Z,95700.51
2019-02-19T12:28:39.628Z,95701.09
2019-02-19T12:31:08.209Z,95702.17
2019-02-19T12:33:37.523Z,95698.69
2019-02-19T12:36:06.408Z,95691.22
2019-02-19T12:38:36.201Z,95687.92
2019-02-19T12:41:05.101Z,95684.77
2019-02-19T12:43:34.753Z,95684.31
2019-02-19T12:46:03.496Z,95671.56
2019-02-19T12:48:39.735Z,95672.33
2019-02-19T12:51:08.446Z,95673.27
2019-02-19T12:53:37.335Z,95673.17
2019-02-19T12:56:06.126Z,95670.28
2019-02-19T12:58:35.633Z,95665.79
2019-02-19T13:01:06.292Z,95661.14
2019-02-19T13:03:35.351Z,95666.44
2019-02-19T13:06:04.119Z,95662.44
2019-02-19T13:08:33.606Z,95659.17
2019-02-19T13:11:02.855Z,95661.32
2019-02-19T13:13:31.433Z,95657.77
2019-02-19T13:16:00.931Z,95654.80
2019-02-19T13:18:30.483Z,95650.68
2019-02-19T13:20:59.433Z,95648.06
2019-02-19T13:23:28.223Z,95650.77
2019-02-19T13:25:56.694Z,95643.33
2019-02-19T13:28:25.601Z,95641.91
2019-02-19T13:30:54.784Z,95642.99
2019-02-19T13:33:23.887Z,95636.41
2019-02-19T13:35:52.974Z,95634.78
2019-02-19T13:38:21.770Z,95636.77
2019-02-19T13:40:50.467Z,95638.57
2019-02-19T13:43:19.346Z,95635.58
2019-02-19T13:45:48.853Z,95636.12
2019-02-19T13:48:18.145Z,95633.05
2019-02-19T13:50:47.249Z,95631.41
2019-02-19T13:53:26.889Z,95632.98
2019-02-19T13:55:57.113Z,95640.34
2019-02-19T13:58:26.098Z,95642.95
2019-02-19T14:00:54.982Z,95649.84
2019-02-19T14:03:23.785Z,95638.56
2019-02-19T14:05:52.635Z,95634.80
2019-02-19T14:08:21.964Z,95634.89
2019-02-19T14:10:50.962Z,95629.28
2019-02-19T14:13:20.068Z,95636.72
2019-02-19T14:16:11.161Z,95634.84
2019-02-19T14:18:49.073Z,95636.85
2019-02-19T14:21:34.958Z,95631.61
2019-02-19T14:24:29.139Z,95632.30
2019-02-19T14:27:26.300Z,95638.80
2019-02-19T14:30:23.348Z,95637.98
2019-02-19T14:33:14.347Z,95635.72
2019-02-19T14:36:02.294Z,95631.91
2019-02-19T14:39:02.919Z,95636.53
2019-02-19T14:41:50.760Z,95637.31
2019-02-19T14:44:31.830Z,95628.03
2019-02-19T14:47:18.649Z,95637.16
2019-02-19T14:50:12.983Z,95631.30
2019-02-19T14:53:07.106Z,95631.36
2019-02-19T14:55:54.024Z,95625.37
2019-02-19T14:58:42.375Z,95629.48
2019-02-19T15:01:32.500Z,95627.13
2019-02-19T15:04:38.931Z,95618.90
2019-02-19T15:07:25.941Z,95623.66
2019-02-19T15:10:19.980Z,95620.56
2019-02-19T15:13:01.000Z,95625.16
2019-02-19T15:15:47.915Z,95621.81
2019-02-19T15:18:44.140Z,95622.65
2019-02-19T15:21:30.745Z,95618.23
2019-02-19T15:24:16.840Z,95621.14
2019-02-19T15:27:00.680Z,95610.07
2019-02-19T15:30:01.318Z,95618.54
2019-02-19T15:32:55.701Z,95608.68
2019-02-19T15:35:38.525Z,95613.78
2019-02-19T15:38:23.095Z,95607.66
2019-02-19T15:41:10.600Z,95609.70
2019-02-19T15:43:58.656Z,95608.78
2019-02-19T15:46:40.536Z,95605.52
2019-02-19T15:49:34.515Z,95603.81
2019-02-19T15:52:36.999Z,95606.59
2019-02-19T15:55:34.667Z,95614.23
2019-02-19T15:58:21.479Z,95610.79
2019-02-19T16:01:24.660Z,95617.91
2019-02-19T16:04:06.682Z,95620.33
2019-02-19T16:07:10.480Z,95612.42
2019-02-19T16:09:58.108Z,95614.70
2019-02-19T16:12:33.345Z,95617.86
2019-02-19T16:15:10.326Z,95616.06
2019-02-19T16:18:07.995Z,95623.16
2019-02-19T16:20:56.924Z,95622.75
2019-02-19T16:23:38.839Z,95625.64
2019-02-19T16:26:27.594Z,95620.78
2019-02-19T16:29:04.471Z,95624.68
2019-02-19T16:31:44.313Z,95622.09
2019-02-19T16:34:23.039Z,95630.12
2019-02-19T16:37:00.635Z,95627.72
2019-02-19T16:40:04.290Z,95624.34
2019-02-19T16:42:45.005Z,95626.96
2019-02-19T16:45:26.596Z,95632.66
2019-02-19T16:48:21.261Z,95643.81
2019-02-19T16:51:09.933Z,95646.84
2019-02-19T16:54:07.506Z,95646.64
2019-02-19T16:57:05.175Z,95650.31
2019-02-19T16:59:45.120Z,95652.98
2019-02-19T17:02:31.020Z,95653.44
2019-02-19T17:05:16.275Z,95662.55
2019-02-19T17:08:07.396Z,95666.43
2019-02-19T17:10:55.740Z,95666.98
2019-02-19T17:13:34.263Z,95671.91
2019-02-19T17:16:16.148Z,95676.98
2019-02-19T17:18:56.004Z,95674.30
2019-02-19T17:21:32.269Z,95687.22
2019-02-19T17:24:17.606Z,95690.92
2019-02-19T17:26:56.361Z,95694.67
2019-02-19T17:29:32.009Z,95704.84
2019-02-19T17:32:23.641Z,95706.20
2019-02-19T17:35:15.466Z,95706.41
2019-02-19T17:38:14.689Z,95709.03
2019-02-19T17:40:59.150Z,95713.12
2019-02-19T17:43:33.433Z,95712.30
2019-02-19T17:46:24.647Z,95708.67
2019-02-19T17:49:13.219Z,95713.26
2019-02-19T17:52:14.550Z,95717.34
2019-02-19T17:55:06.782Z,95725.99
2019-02-19T17:57:54.211Z,95732.98
2019-02-19T18:00:41.636Z,95732.86
2019-02-19T18:03:21.843Z,95733.20
2019-02-19T18:06:11.554Z,95732.59
2019-02-19T18:08:59.925Z,95733.95
2019-02-19T18:11:53.073Z,95743.09
2019-02-19T18:14:39.904Z,95745.67
2019-02-19T18:17:31.098Z,95752.97
2019-02-19T18:20:07.973Z,95743.31
2019-02-19T18:22:37.583Z,95746.32
2019-02-19T18:25:07.495Z,95757.79
2019-02-19T18:27:44.602Z,95758.70
2019-02-19T18:30:15.933Z,95770.73
2019-02-19T18:32:47.585Z,95767.70
2019-02-19T18:35:19.646Z,95768.01
2019-02-19T18:43:31.270Z,95765.50
2019-02-19T18:46:01.099Z,95776.77
2019-02-19T18:48:30.637Z,95777.95
2019-02-19T18:51:01.197Z,95780.19
2019-02-19T18:53:31.619Z,95777.00
2019-02-19T18:56:01.153Z,95784.14
2019-02-19T18:58:34.546Z,95788.09
2019-02-19T19:01:04.155Z,95784.84
2019-02-19T19:03:33.768Z,95784.16
2019-02-19T19:06:03.674Z,95787.17
2019-02-19T19:08:33.393Z,95794.88
2019-02-19T19:11:03.211Z,95794.08
2019-02-19T19:13:33.324Z,95791.74
2019-02-19T19:16:02.722Z,95788.63
2019-02-19T19:18:32.833Z,95791.74
2019-02-19T19:21:07.925Z,95792.90
2019-02-19T19:23:35.848Z,95783.94
2019-02-19T19:26:08.007Z,95783.47
2019-02-19T19:28:39.980Z,95788.65
2019-02-19T19:31:10.049Z,95790.68
2019-02-19T19:33:39.483Z,95799.66
2019-02-19T19:36:09.405Z,95796.50
2019-02-19T19:38:42.595Z,95797.69
2019-02-19T19:41:13.743Z,95795.70
2019-02-19T19:43:46.443Z,95788.23
2019-02-19T19:46:17.468Z,95795.42
2019-02-19T19:48:49.215Z,95799.89
2019-02-19T19:51:19.959Z,95807.90
2019-02-19T19:53:49.979Z,95818.88
2019-02-19T19:56:26.751Z,95823.81
2019-02-19T19:58:57.188Z,95814.67
2019-02-19T20:01:28.519Z,95817.65
2019-02-19T20:04:00.575Z,95815.30
2019-02-19T20:06:31.219Z,95818.86
2019-02-19T20:09:06.540Z,95827.69
2019-02-19T20:11:39.137Z,95828.06
2019-02-19T20:14:10.551Z,95837.87
2019-02-19T20:16:40.800Z,95838.42
2019-02-19T20:19:13.683Z,95831.95
2019-02-19T20:21:45.648Z,95831.33
2019-02-19T20:24:18.018Z,95835.53
2019-02-19T20:26:52.951Z,95841.39
2019-02-19T20:29:25.323Z,95844.53
2019-02-19T20:31:58.515Z,95842.80
2019-02-19T20:34:29.443Z,95838.41
2019-02-19T20:37:00.790Z,95841.36
2019-02-19T20:39:35.628Z,95845.79
2019-02-19T20:42:05.953Z,95846.52
2019-02-19T20:44:37.811Z,95850.09
2019-02-19T20:47:12.342Z,95851.53
2019-02-19T20:49:45.626Z,95855.81
2019-02-19T20:52:15.347Z,95871.26
2019-02-19T20:54:46.700Z,95871.02
2019-02-19T20:57:16.502Z,95873.94
2019-02-19T20:59:46.008Z,95871.08
2019-02-19T21:02:17.038Z,95868.50
2019-02-19T21:04:49.014Z,95865.52
2019-02-19T21:07:18.510Z,95869.56
2019-02-19T21:09:52.519Z,95870.76
2019-02-19T21:12:23.673Z,95871.31
2019-02-19T21:14:53.651Z,95862.00
2019-02-19T21:17:23.133Z,95858.05
2019-02-19T21:19:53.618Z,95867.21
2019-02-19T21:22:22.808Z,95862.97
2019-02-19T21:24:52.544Z,95869.60
2019-02-19T21:27:22.546Z,95867.28
2019-02-19T21:29:51.946Z,95870.16
2019-02-19T21:32:21.451Z,95871.15
2019-02-19T21:34:51.158Z,95872.48
2019-02-19T21:37:20.555Z,95870.41
2019-02-19T21:39:50.363Z,95877.86
2019-02-19T21:42:21.611Z,95872.75
2019-02-19T21:44:51.509Z,95875.39
2019-02-19T21:47:21.243Z,95877.23
2019-02-19T21:49:50.544Z,95874.47
2019-02-19T21:52:19.904Z,95871.76
2019-02-19T21:54:49.386Z,95876.91
2019-02-19T21:57:19.464Z,95872.25
2019-02-19T21:59:48.563Z,95875.31
2019-02-19T22:02:17.657Z,95875.03
2019-02-19T22:04:46.314Z,95871.03
2019-02-19T22:07:15.734Z,95865.97
2019-02-19T22:09:45.257Z,95870.06
2019-02-19T22:12:14.237Z,95881.31
2019-02-19T22:14:43.215Z,95877.87
2019-02-19T22:17:11.917Z,95876.70
2019-02-19T22:19:40.509Z,95869.22
2019-02-19T22:22:14.309Z,95872.91
2019-02-19T22:24:44.165Z,95878.56
2019-02-19T22:27:13.100Z,95875.86
2019-02-19T22:29:41.993Z,95873.95
2019-02-19T22:32:11.713Z,95877.23
2019-02-19T22:34:40.498Z,95882.55
2019-02-19T22:37:09.485Z,95885.03
2019-02-19T22:39:38.886Z,95883.35
2019-02-19T22:42:08.806Z,95879.81
2019-02-19T22:44:38.998Z,95881.44
2019-02-19T22:47:07.818Z,95872.98
2019-02-19T22:49:36.801Z,95873.41
2019-02-19T22:52:12.391Z,95862.94
2019-02-19T22:54:56.913Z,95867.88
2019-02-19T22:57:26.005Z,95874.01
2019-02-19T22:59:54.584Z,95880.20
2019-02-19T23:02:25.944Z,95887.52
2019-02-19T23:04:55.093Z,95880.08
2019-02-19T23:07:23.569Z,95874.28
2019-02-19T23:09:51.886Z,95872.88
2019-02-19T23:12:20.878Z,95891.22
2019-02-19T23:14:49.673Z,95896.41
2019-02-19T23:17:18.257Z,95889.34
2019-02-19T23:19:47.246Z,95898.09
2019-02-19T23:22:21.554Z,95891.27
2019-02-19T23:24:46.670Z,95897.19
2019-02-19T23:27:15.343Z,95883.91
2019-02-19T23:29:43.931Z,95884.78
2019-02-19T23:32:12.818Z,95875.52
2019-02-19T23:34:41.755Z,95879.45
2019-02-19T23:37:22.290Z,95883.84
2019-02-19T23:39:51.583Z,95891.88
2019-02-19T23:42:20.301Z,95891.39
2019-02-19T23:44:49.363Z,95878.34
2019-02-19T23:47:18.152Z,95883.52
2019-02-19T23:49:47.439Z,95889.87
2019-02-19T23:52:16.193Z,95882.16
2019-02-19T23:54:44.680Z,95883.74
2019-02-19T23:57:13.500Z,95881.31
2019-02-19T23:59:43.111Z,95890.72
